createdAt,value
2018-06-09T00:00:48.001Z,83.17
2018-06-09T00:03:17.056Z,82.95
2018-06-09T00:05:46.119Z,82.96
2018-06-09T00:08:15.164Z,82.12
2018-06-09T00:10:44.191Z,83.25
2018-06-09T00:13:13.245Z,82.51
2018-06-09T00:15:42.219Z,83.66
2018-06-09T00:18:11.261Z,83.50
2018-06-09T00:20:46.730Z,82.89
2018-06-09T00:23:15.900Z,82.14
2018-06-09T00:25:45.281Z,82.40
2018-06-09T00:28:14.286Z,82.50
2018-06-09T00:30:43.302Z,81.69
2018-06-09T00:33:12.322Z,81.24
2018-06-09T00:35:41.328Z,81.07
2018-06-09T00:38:10.341Z,82.44
2018-06-09T00:40:39.364Z,83.05
2018-06-09T00:43:09.574Z,83.65
2018-06-09T00:45:38.583Z,84.08
2018-06-09T00:48:07.606Z,84.26
2018-06-09T00:50:36.681Z,83.75
2018-06-09T00:53:05.784Z,83.43
2018-06-09T00:55:34.878Z,83.20
2018-06-09T00:58:03.860Z,82.66
2018-06-09T01:00:33.093Z,82.76
2018-06-09T01:03:02.095Z,83.28
2018-06-09T01:05:31.189Z,83.34
2018-06-09T01:08:00.247Z,83.28
2018-06-09T01:10:29.247Z,83.07
2018-06-09T01:12:58.367Z,82.77
2018-06-09T01:15:27.436Z,81.81
2018-06-09T01:17:56.393Z,82.23
2018-06-09T01:20:25.541Z,82.33
2018-06-09T01:22:54.560Z,82.00
2018-06-09T01:25:23.601Z,82.39
2018-06-09T01:27:52.545Z,82.70
2018-06-09T01:30:22.063Z,83.46
2018-06-09T01:32:51.026Z,84.01
2018-06-09T01:35:20.033Z,84.39
2018-06-09T01:37:49.051Z,83.74
2018-06-09T01:40:18.050Z,84.21
2018-06-09T01:42:47.081Z,83.20
2018-06-09T01:45:16.072Z,82.86
2018-06-09T01:47:48.191Z,82.68
2018-06-09T01:50:17.276Z,83.10
2018-06-09T01:52:46.359Z,82.58
2018-06-09T01:55:15.570Z,83.61
2018-06-09T01:57:44.687Z,84.10
2018-06-09T02:00:13.883Z,83.61
2018-06-09T02:02:43.464Z,84.26
2018-06-09T02:05:12.582Z,84.40
2018-06-09T02:07:42.477Z,84.61
2018-06-09T02:10:11.591Z,84.84
2018-06-09T02:12:40.584Z,85.38
2018-06-09T02:15:09.617Z,84.72
2018-06-09T02:17:38.622Z,84.61
2018-06-09T02:20:07.690Z,84.02
2018-06-09T02:22:36.669Z,84.96
2018-06-09T02:25:05.845Z,84.74
2018-06-09T02:27:34.859Z,85.26
2018-06-09T02:30:03.878Z,86.96
2018-06-09T02:32:32.845Z,86.03
2018-06-09T02:35:01.907Z,85.04
2018-06-09T02:37:30.918Z,85.15
2018-06-09T02:39:59.976Z,84.89
2018-06-09T02:42:29.200Z,85.59
2018-06-09T02:44:59.405Z,84.71
2018-06-09T02:47:28.704Z,86.87
2018-06-09T02:49:58.134Z,86.38
2018-06-09T02:52:27.414Z,85.84
2018-06-09T02:54:56.800Z,86.37
2018-06-09T02:57:26.852Z,86.25
2018-06-09T02:59:56.283Z,86.27
2018-06-09T03:02:25.770Z,86.53
2018-06-09T03:04:55.192Z,86.05
2018-06-09T03:07:24.516Z,86.07
2018-06-09T03:09:53.837Z,86.94
2018-06-09T03:12:23.313Z,86.58
2018-06-09T03:14:52.355Z,87.70
2018-06-09T03:17:21.319Z,86.48
2018-06-09T03:19:50.399Z,86.09
2018-06-09T03:22:19.422Z,86.95
2018-06-09T03:24:48.433Z,86.76
2018-06-09T03:27:17.445Z,86.48
2018-06-09T03:29:46.424Z,86.74
2018-06-09T03:32:15.489Z,86.00
2018-06-09T03:34:44.538Z,85.70
2018-06-09T03:37:13.580Z,86.50
2018-06-09T03:39:42.621Z,86.49
2018-06-09T03:42:11.667Z,86.42
2018-06-09T03:44:40.778Z,85.49
2018-06-09T03:47:09.903Z,86.04
2018-06-09T03:49:38.910Z,86.70
2018-06-09T03:52:07.917Z,87.52
2018-06-09T03:54:36.936Z,86.62
2018-06-09T03:57:06.000Z,86.29
2018-06-09T03:59:35.011Z,86.84
2018-06-09T04:02:04.213Z,88.11
2018-06-09T04:04:33.304Z,87.71
2018-06-09T04:07:02.325Z,86.61
2018-06-09T04:09:31.351Z,87.27
2018-06-09T04:12:00.347Z,86.20
2018-06-09T04:14:29.624Z,86.53
2018-06-09T04:16:58.702Z,86.55
2018-06-09T04:19:27.792Z,85.79
2018-06-09T04:21:56.779Z,85.58
2018-06-09T04:24:25.751Z,85.33
2018-06-09T04:26:54.913Z,86.26
2018-06-09T04:29:24.977Z,86.10
2018-06-09T04:31:54.113Z,85.75
2018-06-09T04:34:24.216Z,86.10
2018-06-09T04:36:53.882Z,87.57
2018-06-09T04:39:22.939Z,87.56
2018-06-09T04:41:51.878Z,88.33
2018-06-09T04:44:20.985Z,86.98
2018-06-09T04:46:50.073Z,86.69
2018-06-09T04:49:19.151Z,86.76
2018-06-09T04:51:48.125Z,86.49
2018-06-09T04:54:17.225Z,86.28
2018-06-09T04:56:46.306Z,85.40
2018-06-09T04:59:15.711Z,86.54
2018-06-09T05:01:45.035Z,86.94
2018-06-09T05:04:14.361Z,85.45
2018-06-09T05:06:43.416Z,85.60
2018-06-09T05:09:12.455Z,84.74
2018-06-09T05:11:41.561Z,85.50
2018-06-09T05:14:10.674Z,85.21
2018-06-09T05:16:40.306Z,84.80
2018-06-09T05:19:09.621Z,85.16
2018-06-09T05:21:38.595Z,84.05
2018-06-09T05:24:13.883Z,83.79
2018-06-09T05:26:42.897Z,83.62
2018-06-09T05:29:12.768Z,83.80
2018-06-09T05:31:41.778Z,82.45
2018-06-09T05:34:10.834Z,82.88
2018-06-09T05:36:40.894Z,83.94
2018-06-09T05:39:10.160Z,84.08
2018-06-09T05:41:39.170Z,84.83
2018-06-09T05:44:08.243Z,84.80
2018-06-09T05:46:38.191Z,83.85
2018-06-09T05:49:07.212Z,83.47
2018-06-09T05:51:36.256Z,82.71
2018-06-09T05:54:05.298Z,81.93
2018-06-09T05:56:35.117Z,82.61
2018-06-09T05:59:06.112Z,80.87
2018-06-09T06:01:35.189Z,80.21
2018-06-09T06:04:04.986Z,79.61
2018-06-09T06:06:34.133Z,79.58
2018-06-09T06:09:04.743Z,77.84
2018-06-09T06:11:33.865Z,78.08
2018-06-09T06:14:03.843Z,77.73
2018-06-09T06:16:34.193Z,78.37
2018-06-09T06:19:03.472Z,77.81
2018-06-09T06:21:32.614Z,78.17
2018-06-09T06:24:01.728Z,78.45
2018-06-09T06:26:30.965Z,78.12
2018-06-09T06:29:00.777Z,78.14
2018-06-09T06:31:30.331Z,77.03
2018-06-09T06:34:00.906Z,76.79
2018-06-09T06:36:31.464Z,77.11
2018-06-09T06:39:00.575Z,76.09
2018-06-09T06:41:29.625Z,76.99
2018-06-09T06:43:58.798Z,77.26
2018-06-09T06:46:27.845Z,76.98
2018-06-09T06:48:57.574Z,75.85
2018-06-09T06:51:26.618Z,75.23
2018-06-09T06:53:55.688Z,74.62
2018-06-09T06:56:24.783Z,74.01
2018-06-09T06:58:53.880Z,74.26
2018-06-09T07:01:24.193Z,75.29
2018-06-09T07:03:54.970Z,73.42
2018-06-09T07:06:24.047Z,74.37
2018-06-09T07:08:53.957Z,72.68
2018-06-09T07:11:22.989Z,73.14
2018-06-09T07:13:51.998Z,72.31
2018-06-09T07:16:21.095Z,72.05
2018-06-09T07:18:50.130Z,71.56
2018-06-09T07:21:19.189Z,70.55
2018-06-09T07:23:49.290Z,70.39
2018-06-09T07:26:20.224Z,70.05
2018-06-09T07:28:49.325Z,68.86
2018-06-09T07:31:19.630Z,69.20
2018-06-09T07:33:48.827Z,67.06
2018-06-09T07:36:19.709Z,67.83
2018-06-09T07:38:48.944Z,64.63
2018-06-09T07:41:18.244Z,64.50
2018-06-09T07:43:51.072Z,66.10
2018-06-09T07:46:20.148Z,66.56
2018-06-09T07:48:51.659Z,65.26
2018-06-09T07:51:20.798Z,66.13
2018-06-09T07:53:49.911Z,64.81
2018-06-09T07:56:19.553Z,66.76
2018-06-09T07:58:48.993Z,63.35
2018-06-09T08:01:18.729Z,61.71
2018-06-09T08:03:48.524Z,63.73
2018-06-09T08:06:17.637Z,63.53
2018-06-09T08:08:46.739Z,63.40
2018-06-09T08:11:15.900Z,61.64
2018-06-09T08:13:45.527Z,62.27
2018-06-09T08:16:15.253Z,63.04
2018-06-09T08:18:45.801Z,62.06
2018-06-09T08:21:16.115Z,60.77
2018-06-09T08:23:45.239Z,61.19
2018-06-09T08:26:14.320Z,62.77
2018-06-09T08:28:44.228Z,62.29
2018-06-09T08:31:14.343Z,63.69
2018-06-09T08:33:44.123Z,63.56
2018-06-09T08:36:13.614Z,61.77
2018-06-09T08:38:43.086Z,61.86
2018-06-09T08:41:12.474Z,60.83
2018-06-09T08:43:41.949Z,60.94
2018-06-09T08:46:11.306Z,60.47
2018-06-09T08:48:40.583Z,59.93
2018-06-09T08:51:10.688Z,62.03
2018-06-09T08:53:40.736Z,62.39
2018-06-09T08:56:10.341Z,61.39
2018-06-09T08:58:40.830Z,61.10
2018-06-09T09:01:11.391Z,62.38
2018-06-09T09:03:40.719Z,58.54
2018-06-09T09:06:10.051Z,58.18
2018-06-09T09:08:40.338Z,58.62
2018-06-09T09:11:12.543Z,57.68
2018-06-09T09:13:41.885Z,57.02
2018-06-09T09:16:11.931Z,57.89
2018-06-09T09:18:41.460Z,57.46
2018-06-09T09:21:11.504Z,56.82
2018-06-09T09:23:41.121Z,55.73
2018-06-09T09:26:11.049Z,55.13
2018-06-09T09:28:40.945Z,55.18
2018-06-09T09:31:10.342Z,54.06
2018-06-09T09:33:39.598Z,55.21
2018-06-09T09:36:08.900Z,55.92
2018-06-09T09:38:38.174Z,56.46
2018-06-09T09:41:07.626Z,54.24
2018-06-09T09:43:38.279Z,55.19
2018-06-09T09:46:09.332Z,54.24
2018-06-09T09:48:39.714Z,54.70
2018-06-09T09:51:09.206Z,54.84
2018-06-09T09:53:38.690Z,52.29
2018-06-09T09:56:08.430Z,52.54
2018-06-09T09:58:39.034Z,53.76
2018-06-09T10:01:09.235Z,51.86
2018-06-09T10:03:38.609Z,52.63
2018-06-09T10:06:08.850Z,50.45
2018-06-09T10:08:38.751Z,50.72
2018-06-09T10:11:08.317Z,52.00
2018-06-09T10:13:39.240Z,49.46
2018-06-09T10:16:09.408Z,46.90
2018-06-09T10:18:38.781Z,47.40
2018-06-09T10:21:08.095Z,47.82
2018-06-09T10:23:37.497Z,47.52
2018-06-09T10:26:07.978Z,47.58
2018-06-09T10:28:39.447Z,45.20
2018-06-09T10:31:08.761Z,44.59
2018-06-09T10:33:38.135Z,45.95
2018-06-09T10:36:07.596Z,45.63
2018-06-09T10:38:39.030Z,45.51
2018-06-09T10:41:08.482Z,44.47
2018-06-09T10:43:37.720Z,46.10
2018-06-09T10:46:08.420Z,45.86
2018-06-09T10:48:39.309Z,44.72
2018-06-09T10:51:08.728Z,44.90
2018-06-09T10:53:38.963Z,44.33
2018-06-09T10:56:08.382Z,46.12
2018-06-09T10:58:39.625Z,45.79
2018-06-09T11:01:08.694Z,46.29
2018-06-09T11:03:38.668Z,46.29
2018-06-09T11:06:07.821Z,44.51
2018-06-09T11:08:36.963Z,44.32
2018-06-09T11:11:05.984Z,44.38
2018-06-09T11:13:36.116Z,45.75
2018-06-09T11:16:06.165Z,44.31
2018-06-09T11:18:35.477Z,43.88
2018-06-09T11:21:06.373Z,44.16
2018-06-09T11:23:35.546Z,44.67
2018-06-09T11:26:04.882Z,45.38
2018-06-09T11:28:34.256Z,44.74
2018-06-09T11:31:04.550Z,41.92
2018-06-09T11:33:35.461Z,42.36
2018-06-09T11:36:04.932Z,43.55
2018-06-09T11:38:34.929Z,44.45
2018-06-09T11:41:07.295Z,43.05
2018-06-09T11:43:36.776Z,43.58
2018-06-09T11:46:06.963Z,41.42
2018-06-09T11:48:36.830Z,43.04
2018-06-09T11:51:06.297Z,43.09
2018-06-09T11:53:35.520Z,40.89
2018-06-09T11:56:05.561Z,43.00
2018-06-09T11:58:34.745Z,42.91
2018-06-09T12:01:03.999Z,45.26
2018-06-09T12:03:33.761Z,44.99
2018-06-09T12:06:02.961Z,45.42
2018-06-09T12:08:32.955Z,44.32
2018-06-09T12:11:02.111Z,44.91
2018-06-09T12:13:31.286Z,45.26
2018-06-09T12:16:00.360Z,46.11
2018-06-09T12:18:30.175Z,44.80
2018-06-09T12:20:59.495Z,43.39
2018-06-09T12:23:28.841Z,43.40
2018-06-09T12:25:58.850Z,44.21
2018-06-09T12:28:29.591Z,44.19
2018-06-09T12:30:59.897Z,45.11
2018-06-09T12:33:29.987Z,46.88
2018-06-09T12:35:59.317Z,48.11
2018-06-09T12:38:28.344Z,49.02
2018-06-09T12:40:57.404Z,47.94
2018-06-09T12:43:26.559Z,48.12
2018-06-09T12:45:55.957Z,48.64
2018-06-09T12:48:25.145Z,49.66
2018-06-09T12:50:54.802Z,50.08
2018-06-09T12:53:23.881Z,51.58
2018-06-09T12:55:52.979Z,50.89
2018-06-09T12:58:22.096Z,52.16
2018-06-09T13:00:52.088Z,51.01
2018-06-09T13:03:21.097Z,49.70
2018-06-09T13:05:53.118Z,54.08
2018-06-09T13:08:22.171Z,54.81
2018-06-09T13:10:52.192Z,58.43
2018-06-09T13:13:21.941Z,62.46
2018-06-09T13:15:52.305Z,67.10
2018-06-09T13:18:21.311Z,70.61
2018-06-09T13:20:50.347Z,70.24
2018-06-09T13:23:19.360Z,70.09
2018-06-09T13:25:49.309Z,69.24
2018-06-09T13:28:18.542Z,67.23
2018-06-09T13:30:48.620Z,66.06
2018-06-09T13:33:17.753Z,67.24
2018-06-09T13:35:46.788Z,66.52
2018-06-09T13:38:16.049Z,65.39
2018-06-09T13:40:46.574Z,63.58
2018-06-09T13:43:16.372Z,62.00
2018-06-09T13:45:46.791Z,63.47
2018-06-09T13:48:16.200Z,63.79
2018-06-09T13:50:45.615Z,63.53
2018-06-09T13:53:16.064Z,63.14
2018-06-09T13:55:45.868Z,62.92
2018-06-09T13:58:16.263Z,63.28
2018-06-09T14:00:45.621Z,63.19
2018-06-09T14:03:14.779Z,62.71
2018-06-09T14:05:44.154Z,63.60
2018-06-09T14:08:14.261Z,66.15
2018-06-09T14:10:44.728Z,68.36
2018-06-09T14:13:14.220Z,57.77
2018-06-09T14:15:43.769Z,56.96
2018-06-09T14:18:13.205Z,57.65
2018-06-09T14:20:43.529Z,55.88
2018-06-09T14:23:13.394Z,56.35
2018-06-09T14:25:42.509Z,55.44
2018-06-09T14:28:12.356Z,54.24
2018-06-09T14:30:41.476Z,57.15
2018-06-09T14:33:10.640Z,57.68
2018-06-09T14:35:40.017Z,58.08
2018-06-09T14:38:09.122Z,55.57
2018-06-09T14:40:38.995Z,55.77
2018-06-09T14:43:09.206Z,54.42
2018-06-09T14:45:38.311Z,56.92
2018-06-09T14:48:07.447Z,54.17
2018-06-09T14:50:37.733Z,53.82
2018-06-09T14:53:06.859Z,56.12
2018-06-09T14:55:35.938Z,55.67
2018-06-09T14:58:05.036Z,56.49
2018-06-09T15:00:36.116Z,57.11
2018-06-09T15:03:06.869Z,58.02
2018-06-09T15:05:35.999Z,58.55
2018-06-09T15:08:05.954Z,60.89
2018-06-09T15:10:35.096Z,59.89
2018-06-09T15:13:06.161Z,59.58
2018-06-09T15:15:35.237Z,62.47
2018-06-09T15:18:05.004Z,61.50
2018-06-09T15:20:34.143Z,59.96
2018-06-09T15:23:04.471Z,60.54
2018-06-09T15:25:33.952Z,57.22
2018-06-09T15:28:03.119Z,57.58
2018-06-09T15:30:32.150Z,58.39
2018-06-09T15:33:02.325Z,60.34
2018-06-09T15:35:31.346Z,61.71
2018-06-09T15:38:00.458Z,60.53
2018-06-09T15:40:29.542Z,61.46
2018-06-09T15:42:59.518Z,62.19
2018-06-09T15:45:30.843Z,62.75
2018-06-09T15:48:00.154Z,63.45
2018-06-09T15:50:31.155Z,63.59
2018-06-09T15:53:00.610Z,64.16
2018-06-09T15:55:30.891Z,65.83
2018-06-09T15:58:00.324Z,66.18
2018-06-09T16:00:31.880Z,67.09
2018-06-09T16:03:01.267Z,67.14
2018-06-09T16:05:32.064Z,67.95
2018-06-09T16:08:01.327Z,67.04
2018-06-09T16:10:31.630Z,66.73
2018-06-09T16:13:00.762Z,66.77
2018-06-09T16:15:32.168Z,66.95
2018-06-09T16:18:03.523Z,66.54
2018-06-09T16:20:33.333Z,68.95
2018-06-09T16:23:03.195Z,68.65
2018-06-09T16:25:32.599Z,68.18
2018-06-09T16:28:02.804Z,66.98
2018-06-09T16:30:32.253Z,68.83
2018-06-09T16:33:01.756Z,68.21
2018-06-09T16:35:31.078Z,68.38
2018-06-09T16:38:00.449Z,67.11
2018-06-09T16:40:29.766Z,68.36
2018-06-09T16:43:02.883Z,69.95
2018-06-09T16:45:32.339Z,71.29
2018-06-09T16:48:01.669Z,71.88
2018-06-09T16:50:31.062Z,74.25
2018-06-09T16:53:00.426Z,74.38
2018-06-09T16:55:29.686Z,76.20
2018-06-09T16:57:58.872Z,75.26
2018-06-09T17:00:28.203Z,76.08
2018-06-09T17:02:58.511Z,76.99
2018-06-09T17:05:28.603Z,79.03
2018-06-09T17:07:59.400Z,79.07
2018-06-09T17:10:28.515Z,79.31
2018-06-09T17:12:59.034Z,79.11
2018-06-09T17:15:28.410Z,79.46
2018-06-09T17:17:58.573Z,79.59
2018-06-09T17:20:27.760Z,79.10
2018-06-09T17:22:56.837Z,78.90
2018-06-09T17:25:25.968Z,80.22
2018-06-09T17:27:55.402Z,80.19
2018-06-09T17:30:24.891Z,80.82
2018-06-09T17:32:54.320Z,81.06
2018-06-09T17:35:23.799Z,81.02
2018-06-09T17:37:53.304Z,80.72
2018-06-09T17:40:22.921Z,80.70
2018-06-09T17:42:54.300Z,81.98
2018-06-09T17:45:24.433Z,81.78
2018-06-09T17:47:54.016Z,80.89
2018-06-09T17:50:24.223Z,81.97
2018-06-09T17:52:54.780Z,82.37
2018-06-09T17:55:24.299Z,81.81
2018-06-09T17:57:53.780Z,81.93
2018-06-09T18:00:23.963Z,83.01
2018-06-09T18:02:53.879Z,83.05
2018-06-09T18:05:32.424Z,84.14
2018-06-09T18:08:18.604Z,83.46
2018-06-09T18:10:47.693Z,83.27
2018-06-09T18:13:16.992Z,83.88
2018-06-09T18:15:46.055Z,83.65
2018-06-09T18:18:15.233Z,83.03
2018-06-09T18:20:44.949Z,84.00
2018-06-09T18:23:15.501Z,83.87
2018-06-09T18:25:47.809Z,84.91
2018-06-09T18:28:17.337Z,85.33
2018-06-09T18:30:47.559Z,85.05
2018-06-09T18:33:19.100Z,85.62
2018-06-09T18:35:51.548Z,85.62
2018-06-09T18:38:23.560Z,85.10
2018-06-09T18:40:53.824Z,84.79
2018-06-09T18:43:23.813Z,84.57
2018-06-09T18:45:54.024Z,84.31
2018-06-09T18:48:25.176Z,84.29
2018-06-09T18:50:56.232Z,86.59
2018-06-09T18:53:26.679Z,85.47
2018-06-09T18:55:56.014Z,84.68
2018-06-09T18:58:26.592Z,85.47
2018-06-09T19:00:57.305Z,84.58
2018-06-09T19:03:27.763Z,84.99
2018-06-09T19:05:57.365Z,85.03
2018-06-09T19:08:28.029Z,85.80
2018-06-09T19:10:57.867Z,86.05
2018-06-09T19:13:27.396Z,85.79
2018-06-09T19:15:56.689Z,85.41
2018-06-09T19:18:26.178Z,85.50
2018-06-09T19:20:55.732Z,85.86
2018-06-09T19:23:25.071Z,85.99
2018-06-09T19:25:55.023Z,86.16
2018-06-09T19:28:24.397Z,86.35
2018-06-09T19:30:53.967Z,86.02
2018-06-09T19:33:24.114Z,84.63
2018-06-09T19:35:54.132Z,85.16
2018-06-09T19:38:28.683Z,84.71
2018-06-09T19:40:58.104Z,84.81
2018-06-09T19:43:29.118Z,84.90
2018-06-09T19:46:00.726Z,85.35
2018-06-09T19:48:33.353Z,85.53
2018-06-09T19:51:02.597Z,85.14
2018-06-09T19:53:33.069Z,87.38
2018-06-09T19:56:02.977Z,86.79
2018-06-09T19:58:34.213Z,86.65
2018-06-09T20:01:03.603Z,87.45
2018-06-09T20:03:33.202Z,87.51
2018-06-09T20:06:02.548Z,87.15
2018-06-09T20:08:33.341Z,87.87
2018-06-09T20:11:03.376Z,87.13
2018-06-09T20:13:32.867Z,87.48
2018-06-09T20:16:02.118Z,87.04
2018-06-09T20:18:32.129Z,86.97
2018-06-09T20:21:02.124Z,86.76
2018-06-09T20:23:32.781Z,86.75
2018-06-09T20:26:05.961Z,86.54
2018-06-09T20:28:35.083Z,86.79
2018-06-09T20:31:04.395Z,86.60
2018-06-09T20:33:33.879Z,87.25
2018-06-09T20:36:03.657Z,86.79
2018-06-09T20:38:34.337Z,86.28
2018-06-09T20:41:03.742Z,86.81
2018-06-09T20:43:33.358Z,87.02
2018-06-09T20:46:02.807Z,88.47
2018-06-09T20:48:32.102Z,87.26
2018-06-09T20:51:01.378Z,87.29
2018-06-09T20:53:30.757Z,87.31
2018-06-09T20:56:00.633Z,87.19
2018-06-09T20:58:34.718Z,87.05
2018-06-09T21:01:04.307Z,86.70
2018-06-09T21:03:34.241Z,87.54
2018-06-09T21:06:03.311Z,87.29
2018-06-09T21:08:32.504Z,86.67
2018-06-09T21:11:01.522Z,86.00
2018-06-09T21:13:33.391Z,87.11
2018-06-09T21:16:02.679Z,88.06
2018-06-09T21:18:32.936Z,88.11
2018-06-09T21:21:02.398Z,87.57
2018-06-09T21:23:31.733Z,88.17
2018-06-09T21:26:01.109Z,87.77
2018-06-09T21:28:35.132Z,87.71
2018-06-09T21:31:11.289Z,88.07
2018-06-09T21:33:57.160Z,87.29
2018-06-09T21:36:28.425Z,87.06
2018-06-09T21:39:01.031Z,87.22
2018-06-09T21:41:35.405Z,87.69
2018-06-09T21:44:09.897Z,87.36
2018-06-09T21:46:44.066Z,87.28
2018-06-09T21:49:13.148Z,87.55
2018-06-09T21:51:42.902Z,87.81
2018-06-09T21:54:12.815Z,87.08
2018-06-09T21:56:41.853Z,87.47
2018-06-09T21:59:11.048Z,87.50
2018-06-09T22:01:40.706Z,88.36
2018-06-09T22:04:09.764Z,87.51
2018-06-09T22:06:39.102Z,88.26
2018-06-09T22:09:08.490Z,88.17
2018-06-09T22:11:37.871Z,88.51
2018-06-09T22:14:07.298Z,88.13
2018-06-09T22:16:37.717Z,88.48
2018-06-09T22:19:08.139Z,88.71
2018-06-09T22:21:37.611Z,87.72
2018-06-09T22:24:07.014Z,89.30
2018-06-09T22:26:37.091Z,88.39
2018-06-09T22:29:06.922Z,89.63
2018-06-09T22:31:36.053Z,90.33
2018-06-09T22:34:06.116Z,89.33
2018-06-09T22:36:35.788Z,89.69
2018-06-09T22:39:06.768Z,89.05
2018-06-09T22:41:35.800Z,88.69
2018-06-09T22:44:04.935Z,88.52
2018-06-09T22:46:34.937Z,88.26
2018-06-09T22:49:04.822Z,88.10
2018-06-09T22:51:33.818Z,88.70
2018-06-09T22:54:02.866Z,88.81
2018-06-09T22:56:31.883Z,89.60
2018-06-09T22:59:00.943Z,88.86
2018-06-09T23:01:32.053Z,89.06
2018-06-09T23:04:01.033Z,90.15
2018-06-09T23:06:30.104Z,90.19
2018-06-09T23:08:59.132Z,90.01
2018-06-09T23:11:28.309Z,89.51
2018-06-09T23:13:57.641Z,89.01
2018-06-09T23:16:26.684Z,89.51
2018-06-09T23:18:55.676Z,89.55
2018-06-09T23:21:24.682Z,89.54
2018-06-09T23:23:53.728Z,89.63
2018-06-09T23:26:22.687Z,89.86
2018-06-09T23:28:51.969Z,90.38
2018-06-09T23:31:23.219Z,90.78
2018-06-09T23:33:52.287Z,90.60
2018-06-09T23:36:22.406Z,89.61
2018-06-09T23:38:51.462Z,89.31
2018-06-09T23:41:20.430Z,89.61
2018-06-09T23:43:49.471Z,89.73
2018-06-09T23:46:18.461Z,89.38
2018-06-09T23:48:49.151Z,89.04
2018-06-09T23:51:19.119Z,88.98
2018-06-09T23:53:48.068Z,89.38
2018-06-09T23:56:17.130Z,89.83
2018-06-09T23:58:46.223Z,89.76
